createdAt,value
2024-02-19T00:02:05.886Z,101536.84
2024-02-19T00:05:09.287Z,101543.03
2024-02-19T00:08:11.723Z,101531.59
2024-02-19T00:11:15.027Z,101533.34
2024-02-19T00:14:17.221Z,101527.06
2024-02-19T00:17:19.452Z,101521.19
2024-02-19T00:20:21.764Z,101519.91
2024-02-19T00:23:23.929Z,101524.50
2024-02-19T00:26:26.091Z,101522.94
2024-02-19T00:29:28.363Z,101513.00
2024-02-19T00:32:30.779Z,101521.56
2024-02-19T00:35:34.041Z,101511.19
2024-02-19T00:38:36.300Z,101507.69
2024-02-19T00:41:38.571Z,101505.03
2024-02-19T00:44:40.773Z,101503.53
2024-02-19T00:47:43.046Z,101494.41
2024-02-19T00:50:45.781Z,101493.06
2024-02-19T00:53:47.918Z,101495.00
2024-02-19T00:56:50.049Z,101484.34
2024-02-19T00:59:52.242Z,101487.56
2024-02-19T01:02:54.779Z,101485.56
2024-02-19T01:05:56.973Z,101484.56
2024-02-19T01:08:59.202Z,101480.09
2024-02-19T01:12:01.356Z,101468.69
2024-02-19T01:15:04.551Z,101467.84
2024-02-19T01:18:06.717Z,101466.91
2024-02-19T01:21:08.876Z,101463.47
2024-02-19T01:24:11.140Z,101460.13
2024-02-19T01:27:13.266Z,101455.72
2024-02-19T01:30:15.594Z,101467.19
2024-02-19T01:33:17.754Z,101468.44
2024-02-19T01:36:19.936Z,101462.34
2024-02-19T01:39:22.894Z,101461.34
2024-02-19T01:42:25.237Z,101453.16
2024-02-19T01:45:27.675Z,101462.84
2024-02-19T01:48:30.194Z,101459.28
2024-02-19T01:51:36.771Z,101445.19
2024-02-19T01:54:39.867Z,101450.31
2024-02-19T01:57:43.654Z,101441.91
2024-02-19T02:00:46.289Z,101438.41
2024-02-19T02:03:48.822Z,101436.38
2024-02-19T02:06:51.083Z,101439.91
2024-02-19T02:09:53.825Z,101432.84
2024-02-19T02:12:56.689Z,101429.19
2024-02-19T02:15:58.895Z,101420.63
2024-02-19T02:19:01.207Z,101420.47
2024-02-19T02:22:03.738Z,101418.63
2024-02-19T02:25:06.491Z,101415.63
2024-02-19T02:28:08.863Z,101415.91
2024-02-19T02:31:11.253Z,101415.09
2024-02-19T02:34:14.005Z,101396.84
2024-02-19T02:37:16.407Z,101408.03
2024-02-19T02:40:18.737Z,101405.25
2024-02-19T02:43:20.941Z,101415.78
2024-02-19T02:46:23.163Z,101413.94
2024-02-19T02:49:25.535Z,101415.13
2024-02-19T02:52:28.043Z,101412.00
2024-02-19T02:55:30.203Z,101411.88
2024-02-19T02:58:34.510Z,101411.09
2024-02-19T03:01:37.147Z,101403.22
2024-02-19T03:04:39.618Z,101396.94
2024-02-19T03:07:41.997Z,101397.66
2024-02-19T03:10:44.534Z,101406.19
2024-02-19T03:13:46.979Z,101398.31
2024-02-19T03:16:49.228Z,101402.94
2024-02-19T03:19:51.581Z,101402.19
2024-02-19T03:22:54.379Z,101406.47
2024-02-19T03:25:56.653Z,101403.72
2024-02-19T03:28:58.868Z,101398.38
2024-02-19T03:32:01.180Z,101390.34
2024-02-19T03:35:04.710Z,101378.19
2024-02-19T03:38:06.850Z,101380.97
2024-02-19T03:41:09.394Z,101380.16
2024-02-19T03:44:11.612Z,101379.47
2024-02-19T03:47:13.843Z,101375.00
2024-02-19T03:50:16.025Z,101374.06
2024-02-19T03:53:18.473Z,101373.16
2024-02-19T03:56:20.630Z,101372.06
2024-02-19T03:59:23.858Z,101361.47
2024-02-19T04:02:26.328Z,101354.38
2024-02-19T04:05:28.572Z,101350.03
2024-02-19T04:08:33.289Z,101350.16
2024-02-19T04:11:36.060Z,101342.56
2024-02-19T04:14:44.372Z,101346.31
2024-02-19T04:17:51.124Z,101343.03
2024-02-19T04:20:53.429Z,101346.38
2024-02-19T04:23:56.687Z,101341.91
2024-02-19T04:26:58.929Z,101340.16
2024-02-19T04:30:01.112Z,101340.94
2024-02-19T04:33:03.498Z,101343.81
2024-02-19T04:36:08.158Z,101353.63
2024-02-19T04:39:11.981Z,101349.41
2024-02-19T04:42:14.443Z,101349.41
2024-02-19T04:45:16.570Z,101356.47
2024-02-19T04:48:18.718Z,101358.09
2024-02-19T04:51:20.854Z,101353.47
2024-02-19T04:54:23.081Z,101356.03
2024-02-19T04:57:25.236Z,101362.88
2024-02-19T05:00:27.409Z,101357.47
2024-02-19T05:03:29.707Z,101358.19
2024-02-19T05:06:31.998Z,101356.44
2024-02-19T05:09:34.235Z,101347.16
2024-02-19T05:12:36.656Z,101343.78
2024-02-19T05:15:38.987Z,101345.75
2024-02-19T05:18:41.211Z,101341.44
2024-02-19T05:21:43.603Z,101338.94
2024-02-19T05:24:48.120Z,101334.50
2024-02-19T05:27:50.464Z,101335.56
2024-02-19T05:30:53.824Z,101337.31
2024-02-19T05:33:55.911Z,101331.06
2024-02-19T05:36:58.067Z,101340.91
2024-02-19T05:40:00.349Z,101332.09
2024-02-19T05:43:02.611Z,101337.47
2024-02-19T05:46:07.292Z,101334.00
2024-02-19T05:49:11.473Z,101328.69
2024-02-19T05:52:13.915Z,101323.25
2024-02-19T05:55:16.202Z,101325.75
2024-02-19T05:58:18.501Z,101325.06
2024-02-19T06:01:23.274Z,101321.88
2024-02-19T06:04:25.584Z,101327.84
2024-02-19T06:07:27.880Z,101330.56
2024-02-19T06:10:30.106Z,101327.88
2024-02-19T06:13:32.434Z,101328.63
2024-02-19T06:16:34.608Z,101322.41
2024-02-19T06:19:40.220Z,101315.44
2024-02-19T06:22:43.803Z,101321.38
2024-02-19T06:25:46.058Z,101324.09
2024-02-19T06:28:48.247Z,101317.69
2024-02-19T06:31:53.254Z,101322.53
2024-02-19T06:34:55.866Z,101318.97
2024-02-19T06:37:58.186Z,101317.13
2024-02-19T06:41:00.372Z,101318.78
2024-02-19T06:44:02.650Z,101328.19
2024-02-19T06:47:05.067Z,101323.16
2024-02-19T06:50:07.794Z,101324.22
2024-02-19T06:53:10.026Z,101323.41
2024-02-19T06:56:13.518Z,101317.47
2024-02-19T06:59:16.496Z,101314.06
2024-02-19T07:02:18.793Z,101308.53
2024-02-19T07:05:21.418Z,101301.72
2024-02-19T07:08:26.632Z,101305.25
2024-02-19T07:11:29.032Z,101299.94
2024-02-19T07:14:31.210Z,101311.00
2024-02-19T07:17:33.434Z,101305.56
2024-02-19T07:20:35.692Z,101309.66
2024-02-19T07:23:37.916Z,101309.53
2024-02-19T07:26:40.122Z,101306.00
2024-02-19T07:29:43.150Z,101305.09
2024-02-19T07:32:45.529Z,101305.13
2024-02-19T07:35:47.905Z,101310.88
2024-02-19T07:38:50.069Z,101307.00
2024-02-19T07:41:52.267Z,101302.06
2024-02-19T07:44:54.478Z,101305.91
2024-02-19T07:47:56.639Z,101300.88
2024-02-19T07:50:58.867Z,101301.19
2024-02-19T07:54:01.025Z,101291.63
2024-02-19T07:57:03.266Z,101290.66
2024-02-19T08:00:06.501Z,101292.19
2024-02-19T08:03:09.238Z,101304.69
2024-02-19T08:06:11.393Z,101299.19
2024-02-19T08:09:13.563Z,101306.78
2024-02-19T08:12:15.764Z,101302.00
2024-02-19T08:15:17.957Z,101292.84
2024-02-19T08:18:21.785Z,101308.59
2024-02-19T08:21:24.427Z,101300.44
2024-02-19T08:24:26.647Z,101306.81
2024-02-19T08:27:28.905Z,101308.44
2024-02-19T08:30:31.602Z,101300.78
2024-02-19T08:33:33.749Z,101305.72
2024-02-19T08:36:35.967Z,101297.28
2024-02-19T08:39:39.689Z,101298.72
2024-02-19T08:42:43.309Z,101297.69
2024-02-19T08:45:45.593Z,101303.50
2024-02-19T08:48:47.909Z,101301.66
2024-02-19T08:51:50.222Z,101300.50
2024-02-19T08:54:52.479Z,101294.38
2024-02-19T08:57:54.750Z,101297.97
2024-02-19T09:00:58.533Z,101310.09
2024-02-19T09:04:01.069Z,101308.56
2024-02-19T09:07:03.415Z,101299.53
2024-02-19T09:10:06.445Z,101299.63
2024-02-19T09:13:08.751Z,101301.81
2024-02-19T09:16:11.100Z,101295.72
2024-02-19T09:19:15.451Z,101292.97
2024-02-19T09:22:18.198Z,101287.66
2024-02-19T09:25:20.497Z,101291.19
2024-02-19T09:28:23.202Z,101298.19
2024-02-19T09:31:27.232Z,101292.84
2024-02-19T09:34:30.011Z,101287.50
2024-02-19T09:37:32.499Z,101283.97
2024-02-19T09:40:37.198Z,101275.59
2024-02-19T09:43:40.195Z,101279.81
2024-02-19T09:46:43.064Z,101274.31
2024-02-19T09:49:45.768Z,101287.25
2024-02-19T09:52:48.232Z,101278.25
2024-02-19T09:55:50.814Z,101273.75
2024-02-19T09:58:53.543Z,101280.56
2024-02-19T10:01:55.882Z,101272.41
2024-02-19T10:05:00.331Z,101277.44
2024-02-19T10:08:06.322Z,101265.16
2024-02-19T10:11:12.046Z,101266.94
2024-02-19T10:14:14.876Z,101267.66
2024-02-19T10:17:30.080Z,101263.19
2024-02-19T10:20:34.028Z,101264.75
2024-02-19T10:23:36.218Z,101264.56
2024-02-19T10:26:38.909Z,101257.13
2024-02-19T10:29:41.116Z,101255.94
2024-02-19T10:32:43.915Z,101249.44
2024-02-19T10:35:48.232Z,101250.72
2024-02-19T10:38:50.762Z,101245.75
2024-02-19T10:41:53.045Z,101236.50
2024-02-19T10:44:58.000Z,101233.72
2024-02-19T10:48:00.495Z,101225.59
2024-02-19T10:51:06.332Z,101214.75
2024-02-19T10:54:08.574Z,101214.53
2024-02-19T10:57:18.265Z,101214.38
2024-02-19T11:00:27.589Z,101199.06
2024-02-19T11:03:31.553Z,101206.44
2024-02-19T11:06:35.315Z,101191.16
2024-02-19T11:09:38.270Z,101192.31
2024-02-19T11:12:41.387Z,101180.66
2024-02-19T11:15:43.873Z,101181.25
2024-02-19T11:18:46.453Z,101175.13
2024-02-19T11:21:48.911Z,101178.16
2024-02-19T11:24:52.153Z,101171.25
2024-02-19T11:27:54.460Z,101163.22
2024-02-19T11:31:03.785Z,101161.28
2024-02-19T11:34:06.444Z,101161.81
2024-02-19T11:37:09.937Z,101153.56
2024-02-19T11:40:12.782Z,101148.88
2024-02-19T11:43:16.712Z,101147.22
2024-02-19T11:46:20.618Z,101145.84
2024-02-19T11:49:23.921Z,101137.19
2024-02-19T11:52:26.299Z,101138.19
2024-02-19T11:55:32.228Z,101133.97
2024-02-19T11:58:34.626Z,101130.13
2024-02-19T12:01:38.290Z,101129.22
2024-02-19T12:04:40.848Z,101119.59
2024-02-19T12:07:43.755Z,101126.69
2024-02-19T12:10:47.075Z,101128.75
2024-02-19T12:13:49.276Z,101125.50
2024-02-19T12:16:51.523Z,101129.38
2024-02-19T12:19:57.059Z,101119.69
2024-02-19T12:22:59.705Z,101116.25
2024-02-19T12:26:02.019Z,101109.25
2024-02-19T12:29:04.274Z,101103.88
2024-02-19T12:32:06.585Z,101106.09
2024-02-19T12:35:09.765Z,101108.66
2024-02-19T12:38:12.525Z,101105.38
2024-02-19T12:41:17.187Z,101109.03
2024-02-19T12:44:19.955Z,101097.53
2024-02-19T12:47:24.734Z,101099.19
2024-02-19T12:50:29.122Z,101093.84
2024-02-19T12:53:31.983Z,101092.03
2024-02-19T12:56:34.191Z,101092.84
2024-02-19T12:59:36.364Z,101096.06
2024-02-19T13:02:38.701Z,101087.22
2024-02-19T13:05:41.200Z,101089.91
2024-02-19T13:08:45.359Z,101083.16
2024-02-19T13:11:47.673Z,101082.06
2024-02-19T13:14:49.884Z,101084.38
2024-02-19T13:17:52.194Z,101084.38
2024-02-19T13:20:57.680Z,101072.84
2024-02-19T13:24:00.325Z,101078.84
2024-02-19T13:27:02.529Z,101082.75
2024-02-19T13:30:05.956Z,101080.91
2024-02-19T13:33:08.479Z,101079.09
2024-02-19T13:36:10.616Z,101081.91
2024-02-19T13:39:13.634Z,101078.59
2024-02-19T13:42:15.852Z,101073.25
2024-02-19T13:45:24.635Z,101075.31
2024-02-19T13:48:27.541Z,101080.53
2024-02-19T13:51:30.235Z,101073.25
2024-02-19T13:54:32.489Z,101072.34
2024-02-19T13:57:34.728Z,101075.66
2024-02-19T14:00:36.867Z,101071.88
2024-02-19T14:03:39.094Z,101068.00
2024-02-19T14:06:41.450Z,101071.41
2024-02-19T14:09:43.882Z,101076.56
2024-02-19T14:12:46.049Z,101078.56
2024-02-19T14:15:48.318Z,101078.94
2024-02-19T14:18:50.602Z,101077.88
2024-02-19T14:21:54.170Z,101080.25
2024-02-19T14:24:56.332Z,101090.97
2024-02-19T14:28:00.678Z,101078.75
2024-02-19T14:31:03.969Z,101079.09
2024-02-19T14:34:07.995Z,101073.19
2024-02-19T14:37:11.057Z,101070.63
2024-02-19T14:40:18.816Z,101068.91
2024-02-19T14:43:21.339Z,101072.34
2024-02-19T14:46:23.753Z,101063.63
2024-02-19T14:49:26.126Z,101062.75
2024-02-19T14:52:28.648Z,101067.34
2024-02-19T14:55:31.197Z,101065.56
2024-02-19T14:58:33.998Z,101067.34
2024-02-19T15:01:38.413Z,101068.09
2024-02-19T15:04:41.815Z,101067.34
2024-02-19T15:07:46.291Z,101074.16
2024-02-19T15:10:48.832Z,101070.03
2024-02-19T15:13:51.100Z,101062.06
2024-02-19T15:16:53.437Z,101063.63
2024-02-19T15:19:56.456Z,101075.88
2024-02-19T15:22:58.686Z,101085.91
2024-02-19T15:26:02.552Z,101091.31
2024-02-19T15:29:05.500Z,101093.94
2024-02-19T15:32:08.889Z,101094.06
2024-02-19T15:35:11.377Z,101106.22
2024-02-19T15:38:14.171Z,101094.97
2024-02-19T15:41:21.106Z,101068.44
2024-02-19T15:44:23.392Z,101060.84
2024-02-19T15:47:26.625Z,101053.50
2024-02-19T15:50:29.072Z,101057.34
2024-02-19T15:53:31.220Z,101051.31
2024-02-19T15:56:33.407Z,101048.59
2024-02-19T15:59:36.217Z,101052.13
2024-02-19T16:02:41.429Z,101053.16
2024-02-19T16:05:44.592Z,101054.78
2024-02-19T16:08:46.749Z,101059.75
2024-02-19T16:11:51.102Z,101056.38
2024-02-19T16:14:53.247Z,101062.44
2024-02-19T16:17:55.474Z,101065.16
2024-02-19T16:20:57.717Z,101068.59
2024-02-19T16:23:59.934Z,101061.34
2024-02-19T16:27:05.351Z,101057.00
2024-02-19T16:30:10.339Z,101040.25
2024-02-19T16:33:13.534Z,101050.94
2024-02-19T16:36:16.124Z,101056.59
2024-02-19T16:39:18.294Z,101061.13
2024-02-19T16:42:20.563Z,101073.66
2024-02-19T16:45:26.832Z,101071.81
2024-02-19T16:48:29.447Z,101072.63
2024-02-19T16:51:31.763Z,101069.06
2024-02-19T16:54:33.974Z,101076.28
2024-02-19T16:57:36.279Z,101075.69
2024-02-19T17:00:38.520Z,101075.81
2024-02-19T17:03:40.936Z,101078.50
2024-02-19T17:06:45.181Z,101077.69
2024-02-19T17:09:47.606Z,101075.22
2024-02-19T17:12:49.876Z,101071.66
2024-02-19T17:15:52.144Z,101075.25
2024-02-19T17:18:54.334Z,101067.31
2024-02-19T17:21:56.707Z,101063.00
2024-02-19T17:24:59.005Z,101062.19
2024-02-19T17:28:01.294Z,101061.41
2024-02-19T17:31:04.620Z,101064.91
2024-02-19T17:34:07.058Z,101066.59
2024-02-19T17:37:10.220Z,101069.41
2024-02-19T17:40:12.865Z,101080.88
2024-02-19T17:43:15.726Z,101088.06
2024-02-19T17:46:18.130Z,101090.00
2024-02-19T17:49:20.481Z,101085.63
2024-02-19T17:52:22.821Z,101081.22
2024-02-19T17:55:25.179Z,101081.16
2024-02-19T18:01:52.111Z,101077.38
2024-02-19T18:04:57.509Z,101067.91
2024-02-19T18:07:59.784Z,101070.53
2024-02-19T18:11:02.632Z,101075.97
2024-02-19T18:14:04.806Z,101074.19
2024-02-19T18:17:06.972Z,101068.81
2024-02-19T18:20:11.034Z,101066.97
2024-02-19T18:23:13.539Z,101063.69
2024-02-19T18:26:15.693Z,101074.66
2024-02-19T18:29:18.303Z,101069.16
2024-02-19T18:32:20.822Z,101064.81
2024-02-19T18:35:23.117Z,101074.25
2024-02-19T18:38:25.485Z,101072.56
2024-02-19T18:41:28.841Z,101072.56
2024-02-19T18:44:31.182Z,101080.66
2024-02-19T18:47:33.306Z,101077.19
2024-02-19T18:50:35.831Z,101082.44
2024-02-19T18:53:38.548Z,101093.09
2024-02-19T18:56:40.757Z,101097.53
2024-02-19T18:59:42.983Z,101091.41
2024-02-19T19:02:45.715Z,101097.34
2024-02-19T19:05:48.301Z,101086.84
2024-02-19T19:08:50.515Z,101083.38
2024-02-19T19:11:52.869Z,101086.91
2024-02-19T19:14:55.047Z,101092.19
2024-02-19T19:17:57.229Z,101086.91
2024-02-19T19:20:59.384Z,101085.06
2024-02-19T19:24:01.837Z,101086.91
2024-02-19T19:27:05.702Z,101093.13
2024-02-19T19:30:08.676Z,101083.72
2024-02-19T19:33:11.939Z,101079.47
2024-02-19T19:36:14.745Z,101083.94
2024-02-19T19:39:17.326Z,101082.31
2024-02-19T19:42:21.359Z,101074.66
2024-02-19T19:45:24.358Z,101074.66
2024-02-19T19:48:29.001Z,101086.97
2024-02-19T19:51:31.615Z,101087.94
2024-02-19T19:54:33.832Z,101092.44
2024-02-19T19:57:36.079Z,101080.28
2024-02-19T20:00:38.290Z,101086.56
2024-02-19T20:03:40.515Z,101082.34
2024-02-19T20:06:42.743Z,101088.72
2024-02-19T20:09:47.202Z,101095.16
2024-02-19T20:12:50.871Z,101102.44
2024-02-19T20:15:53.233Z,101102.63
2024-02-19T20:18:56.982Z,101096.75
2024-02-19T20:21:59.445Z,101107.38
2024-02-19T20:25:01.728Z,101108.13
2024-02-19T20:28:05.663Z,101103.78
2024-02-19T20:31:08.054Z,101111.03
2024-02-19T20:34:12.558Z,101111.91
2024-02-19T20:37:16.101Z,101115.38
2024-02-19T20:40:19.651Z,101110.91
2024-02-19T20:43:22.060Z,101104.81
2024-02-19T20:46:24.591Z,101096.97
2024-02-19T20:49:26.853Z,101105.78
2024-02-19T20:52:29.959Z,101102.25
2024-02-19T20:55:32.225Z,101110.81
2024-02-19T20:58:34.910Z,101109.00
2024-02-19T21:01:37.318Z,101112.38
2024-02-19T21:04:39.733Z,101114.97
2024-02-19T21:07:44.946Z,101113.19
2024-02-19T21:10:49.239Z,101114.16
2024-02-19T21:13:51.456Z,101117.78
2024-02-19T21:16:53.669Z,101114.47
2024-02-19T21:19:59.523Z,101119.03
2024-02-19T21:23:02.140Z,101118.31
2024-02-19T21:26:04.567Z,101113.03
2024-02-19T21:29:06.717Z,101115.00
2024-02-19T21:32:08.990Z,101111.59
2024-02-19T21:35:14.134Z,101116.97
2024-02-19T21:38:16.433Z,101113.63
2024-02-19T21:41:18.928Z,101112.22
2024-02-19T21:44:22.966Z,101117.56
2024-02-19T21:47:25.276Z,101114.03
2024-02-19T21:50:31.268Z,101108.56
2024-02-19T21:53:33.517Z,101116.34
2024-02-19T21:56:36.054Z,101116.34
2024-02-19T21:59:38.573Z,101118.03
2024-02-19T22:02:40.899Z,101122.44
2024-02-19T22:05:43.091Z,101124.34
2024-02-19T22:08:45.231Z,101116.63
2024-02-19T22:11:47.667Z,101115.72
2024-02-19T22:14:49.857Z,101116.63
2024-02-19T22:17:52.200Z,101118.22
2024-02-19T22:20:54.555Z,101117.25
2024-02-19T22:23:56.841Z,101120.03
2024-02-19T22:26:59.260Z,101122.63
2024-02-19T22:30:01.863Z,101111.06
2024-02-19T22:33:04.248Z,101128.47
2024-02-19T22:36:06.569Z,101128.19
2024-02-19T22:39:10.916Z,101122.06
2024-02-19T22:42:13.398Z,101129.19
2024-02-19T22:45:15.602Z,101129.19
2024-02-19T22:48:17.874Z,101125.66
2024-02-19T22:51:20.237Z,101129.41
2024-02-19T22:54:22.483Z,101127.09
2024-02-19T22:57:24.655Z,101132.63
2024-02-19T23:00:26.826Z,101124.81
2024-02-19T23:03:29.322Z,101132.66
2024-02-19T23:06:31.868Z,101130.06
2024-02-19T23:09:34.181Z,101130.47
2024-02-19T23:12:36.327Z,101134.28
2024-02-19T23:15:38.445Z,101139.81
2024-02-19T23:18:40.653Z,101131.13
2024-02-19T23:21:42.899Z,101132.00
2024-02-19T23:24:45.085Z,101124.22
2024-02-19T23:27:47.200Z,101134.94
2024-02-19T23:30:49.367Z,101128.75
2024-02-19T23:33:51.994Z,101136.53
2024-02-19T23:36:55.655Z,101133.06
2024-02-19T23:39:59.478Z,101132.28
2024-02-19T23:43:01.796Z,101134.06
2024-02-19T23:46:04.094Z,101128.94
2024-02-19T23:49:07.961Z,101125.41
2024-02-19T23:52:10.568Z,101124.41
2024-02-19T23:55:15.703Z,101124.88
2024-02-19T23:58:17.960Z,101125.13
